createdAt,value
2023-07-01T00:00:42.525Z,4.04
2023-07-01T00:03:09.222Z,3.95
2023-07-01T00:05:35.884Z,4.11
2023-07-01T00:08:02.821Z,4.20
2023-07-01T00:10:29.427Z,4.40
2023-07-01T00:12:56.041Z,4.10
2023-07-01T00:15:23.321Z,4.43
2023-07-01T00:17:50.081Z,4.39
2023-07-01T00:20:17.358Z,4.40
2023-07-01T00:22:44.034Z,4.63
2023-07-01T00:25:10.651Z,4.69
2023-07-01T00:27:37.284Z,4.84
2023-07-01T00:30:04.417Z,4.88
2023-07-01T00:32:31.160Z,4.63
2023-07-01T00:34:57.924Z,4.95
2023-07-01T00:37:24.553Z,4.79
2023-07-01T00:39:51.221Z,4.81
2023-07-01T00:42:17.996Z,4.86
2023-07-01T00:44:44.640Z,4.91
2023-07-01T00:47:11.947Z,5.10
2023-07-01T00:49:40.861Z,4.64
2023-07-01T00:52:08.279Z,4.90
2023-07-01T00:54:36.763Z,4.77
2023-07-01T00:57:05.330Z,4.60
2023-07-01T00:59:33.368Z,4.87
2023-07-01T01:02:06.804Z,5.25
2023-07-01T01:04:45.702Z,4.75
2023-07-01T01:07:24.127Z,4.69
2023-07-01T01:09:58.369Z,5.14
2023-07-01T01:12:31.004Z,5.40
2023-07-01T01:15:00.056Z,5.28
2023-07-01T01:17:30.297Z,5.07
2023-07-01T01:20:00.988Z,5.32
2023-07-01T01:22:43.610Z,5.10
2023-07-01T01:25:31.181Z,5.00
2023-07-01T01:27:59.274Z,5.07
2023-07-01T01:30:33.442Z,5.42
2023-07-01T01:33:00.996Z,4.91
2023-07-01T01:35:27.729Z,5.07
2023-07-01T01:38:00.236Z,5.03
2023-07-01T01:40:40.219Z,4.70
2023-07-01T01:43:18.152Z,4.86
2023-07-01T01:45:46.809Z,4.93
2023-07-01T01:48:14.314Z,4.71
2023-07-01T01:50:42.935Z,4.57
2023-07-01T01:53:12.123Z,4.78
2023-07-01T01:55:40.325Z,5.00
2023-07-01T01:58:07.495Z,4.96
2023-07-01T02:00:36.465Z,4.92
2023-07-01T02:03:03.973Z,4.95
2023-07-01T02:05:30.889Z,4.93
2023-07-01T02:07:58.134Z,4.90
2023-07-01T02:10:24.848Z,4.95
2023-07-01T02:12:51.511Z,5.08
2023-07-01T02:15:18.158Z,5.18
2023-07-01T02:17:44.780Z,5.52
2023-07-01T02:20:12.954Z,5.23
2023-07-01T02:22:39.671Z,5.25
2023-07-01T02:25:06.807Z,5.28
2023-07-01T02:27:33.479Z,5.22
2023-07-01T02:30:00.884Z,4.94
2023-07-01T02:32:27.524Z,5.18
2023-07-01T02:34:54.168Z,5.11
2023-07-01T02:37:20.774Z,4.98
2023-07-01T02:39:48.193Z,5.00
2023-07-01T02:42:20.846Z,5.08
2023-07-01T02:44:48.984Z,5.22
2023-07-01T02:47:17.373Z,5.06
2023-07-01T02:49:44.338Z,4.86
2023-07-01T02:52:12.430Z,4.84
2023-07-01T02:54:42.702Z,4.86
2023-07-01T02:57:11.229Z,4.93
2023-07-01T02:59:38.712Z,5.32
2023-07-01T03:02:06.603Z,5.17
2023-07-01T03:04:34.679Z,4.95
2023-07-01T03:07:02.098Z,5.06
2023-07-01T03:09:28.957Z,5.13
2023-07-01T03:11:55.800Z,5.02
2023-07-01T03:14:22.392Z,5.23
2023-07-01T03:16:51.234Z,5.28
2023-07-01T03:19:18.140Z,5.22
2023-07-01T03:21:45.449Z,5.03
2023-07-01T03:24:12.434Z,5.04
2023-07-01T03:26:39.317Z,4.84
2023-07-01T03:29:06.064Z,4.99
2023-07-01T03:31:34.308Z,5.18
2023-07-01T03:34:01.377Z,4.86
2023-07-01T03:36:28.171Z,5.33
2023-07-01T03:38:57.093Z,5.00
2023-07-01T03:41:23.749Z,4.99
2023-07-01T03:43:50.400Z,5.12
2023-07-01T03:46:18.059Z,5.49
2023-07-01T03:48:45.025Z,5.10
2023-07-01T03:51:11.698Z,5.31
2023-07-01T03:53:38.380Z,5.45
2023-07-01T03:56:05.258Z,5.38
2023-07-01T03:58:31.890Z,5.69
2023-07-01T04:00:58.767Z,5.77
2023-07-01T04:03:25.505Z,5.89
2023-07-01T04:05:53.111Z,5.72
2023-07-01T04:08:20.036Z,5.75
2023-07-01T04:10:46.808Z,5.34
2023-07-01T04:13:14.057Z,5.36
2023-07-01T04:15:40.752Z,5.80
2023-07-01T04:18:07.521Z,6.11
2023-07-01T04:20:34.170Z,5.81
2023-07-01T04:23:02.393Z,5.55
2023-07-01T04:25:29.928Z,5.53
2023-07-01T04:27:58.120Z,5.66
2023-07-01T04:30:25.489Z,5.60
2023-07-01T04:32:52.306Z,5.51
2023-07-01T04:35:19.028Z,5.83
2023-07-01T04:37:45.738Z,6.06
2023-07-01T04:40:13.702Z,6.14
2023-07-01T04:42:50.173Z,6.41
2023-07-01T04:45:19.518Z,6.56
2023-07-01T04:47:47.202Z,6.52
2023-07-01T04:50:14.846Z,6.62
2023-07-01T04:52:41.854Z,6.97
2023-07-01T04:55:09.032Z,7.34
2023-07-01T04:57:35.704Z,7.08
2023-07-01T05:00:11.180Z,7.50
2023-07-01T05:02:38.532Z,7.60
2023-07-01T05:05:05.915Z,7.92
2023-07-01T05:07:33.774Z,7.52
2023-07-01T05:10:00.509Z,7.87
2023-07-01T05:12:27.942Z,7.93
2023-07-01T05:14:56.170Z,7.73
2023-07-01T05:17:22.875Z,7.93
2023-07-01T05:19:50.164Z,7.38
2023-07-01T05:22:16.780Z,7.78
2023-07-01T05:24:43.483Z,7.69
2023-07-01T05:27:10.184Z,7.89
2023-07-01T05:29:36.854Z,7.53
2023-07-01T05:32:04.333Z,7.94
2023-07-01T05:34:31.181Z,7.86
2023-07-01T05:36:57.859Z,8.14
2023-07-01T05:39:24.898Z,8.11
2023-07-01T05:41:51.659Z,8.28
2023-07-01T05:44:18.269Z,8.33
2023-07-01T05:46:44.941Z,8.17
2023-07-01T05:49:11.936Z,8.46
2023-07-01T05:51:39.141Z,8.48
2023-07-01T05:54:05.786Z,8.56
2023-07-01T05:56:32.476Z,8.71
2023-07-01T05:58:59.174Z,8.91
2023-07-01T06:01:25.922Z,8.50
2023-07-01T06:03:52.689Z,8.33
2023-07-01T06:06:20.221Z,8.36
2023-07-01T06:08:47.881Z,8.53
2023-07-01T06:11:15.225Z,8.69
2023-07-01T06:13:46.880Z,8.11
2023-07-01T06:16:15.269Z,8.11
2023-07-01T06:18:42.993Z,8.05
2023-07-01T06:21:09.872Z,8.15
2023-07-01T06:23:37.981Z,8.14
2023-07-01T06:26:05.458Z,8.19
2023-07-01T06:28:32.934Z,8.42
2023-07-01T06:30:59.988Z,8.10
2023-07-01T06:33:26.634Z,8.46
2023-07-01T06:35:53.293Z,8.39
2023-07-01T06:38:20.009Z,8.78
2023-07-01T06:40:47.482Z,8.81
2023-07-01T06:43:14.550Z,8.60
2023-07-01T06:45:41.275Z,8.37
2023-07-01T06:48:08.113Z,8.12
2023-07-01T06:50:35.755Z,8.29
2023-07-01T06:53:03.761Z,8.51
2023-07-01T06:55:31.226Z,8.36
2023-07-01T06:57:58.192Z,8.17
2023-07-01T07:00:25.780Z,7.91
2023-07-01T07:02:52.678Z,8.11
2023-07-01T07:05:19.474Z,8.52
2023-07-01T07:07:46.484Z,8.67
2023-07-01T07:10:13.409Z,8.93
2023-07-01T07:12:40.128Z,9.41
2023-07-01T07:15:07.496Z,9.72
2023-07-01T07:17:36.059Z,9.89
2023-07-01T07:20:03.210Z,9.62
2023-07-01T07:22:30.076Z,10.11
2023-07-01T07:24:58.643Z,10.52
2023-07-01T07:27:25.290Z,10.64
2023-07-01T07:29:51.893Z,10.69
2023-07-01T07:32:18.880Z,11.06
2023-07-01T07:34:45.920Z,10.97
2023-07-01T07:37:12.645Z,11.22
2023-07-01T07:39:39.368Z,11.18
2023-07-01T07:42:06.375Z,11.11
2023-07-01T07:44:33.118Z,11.23
2023-07-01T07:47:01.216Z,11.62
2023-07-01T07:49:28.148Z,11.25
2023-07-01T07:51:54.807Z,11.99
2023-07-01T07:54:22.100Z,11.68
2023-07-01T07:56:48.777Z,11.60
2023-07-01T07:59:15.450Z,10.68
2023-07-01T08:01:42.170Z,10.75
2023-07-01T08:04:09.086Z,10.62
2023-07-01T08:06:35.757Z,9.99
2023-07-01T08:09:02.434Z,10.34
2023-07-01T08:11:29.075Z,9.69
2023-07-01T08:13:55.826Z,9.58
2023-07-01T08:16:22.464Z,9.70
2023-07-01T08:18:49.169Z,9.51
2023-07-01T08:21:15.839Z,9.17
2023-07-01T08:23:42.464Z,8.99
2023-07-01T08:26:09.088Z,8.76
2023-07-01T08:28:35.904Z,8.41
2023-07-01T08:31:02.629Z,8.29
2023-07-01T08:33:29.689Z,8.04
2023-07-01T08:35:58.241Z,7.94
2023-07-01T08:38:25.182Z,7.62
2023-07-01T08:40:55.339Z,7.45
2023-07-01T08:43:26.688Z,7.22
2023-07-01T08:45:53.742Z,7.27
2023-07-01T08:48:25.789Z,6.95
2023-07-01T08:51:03.160Z,7.20
2023-07-01T08:53:30.603Z,6.98
2023-07-01T08:55:58.156Z,6.98
2023-07-01T08:58:25.579Z,6.76
2023-07-01T09:00:52.739Z,6.68
2023-07-01T09:03:21.151Z,6.92
2023-07-01T09:05:48.096Z,6.92
2023-07-01T09:08:14.985Z,6.95
2023-07-01T09:10:41.878Z,7.35
2023-07-01T09:13:13.392Z,7.12
2023-07-01T09:15:58.213Z,7.52
2023-07-01T09:18:27.438Z,7.55
2023-07-01T09:20:54.476Z,7.84
2023-07-01T09:23:32.292Z,7.64
2023-07-01T09:26:08.230Z,7.87
2023-07-01T09:28:35.867Z,7.93
2023-07-01T09:31:04.570Z,8.15
2023-07-01T09:33:32.099Z,7.51
2023-07-01T09:36:02.377Z,8.15
2023-07-01T09:38:33.594Z,8.90
2023-07-01T09:41:14.706Z,8.32
2023-07-01T09:43:42.069Z,7.74
2023-07-01T09:46:11.953Z,7.79
2023-07-01T09:48:38.724Z,7.48
2023-07-01T09:51:06.319Z,7.68
2023-07-01T09:53:35.191Z,7.82
2023-07-01T09:56:06.120Z,7.29
2023-07-01T09:58:33.567Z,6.72
2023-07-01T10:01:01.649Z,6.63
2023-07-01T10:03:28.427Z,6.34
2023-07-01T10:05:56.156Z,6.29
2023-07-01T10:08:23.400Z,6.22
2023-07-01T10:11:12.374Z,6.04
2023-07-01T10:13:45.960Z,6.38
2023-07-01T10:16:13.083Z,6.35
2023-07-01T10:18:40.153Z,5.56
2023-07-01T10:21:24.984Z,5.58
2023-07-01T10:23:53.843Z,5.56
2023-07-01T10:26:40.739Z,5.59
2023-07-01T10:29:29.328Z,5.85
2023-07-01T10:32:11.869Z,5.59
2023-07-01T10:34:53.662Z,5.55
2023-07-01T10:37:23.162Z,5.69
2023-07-01T10:39:51.183Z,5.13
2023-07-01T10:42:35.150Z,4.43
2023-07-01T10:45:14.094Z,3.61
2023-07-01T10:48:01.043Z,3.43
2023-07-01T10:50:27.752Z,3.30
2023-07-01T10:52:57.826Z,4.14
2023-07-01T10:55:51.033Z,3.22
2023-07-01T10:58:28.834Z,3.60
2023-07-01T11:00:57.678Z,5.23
2023-07-01T11:03:37.009Z,3.76
2023-07-01T11:06:07.253Z,3.88
2023-07-01T11:08:43.568Z,4.06
2023-07-01T11:11:10.397Z,4.07
2023-07-01T11:13:37.328Z,4.04
2023-07-01T11:16:10.241Z,4.79
2023-07-01T11:18:54.428Z,5.15
2023-07-01T11:21:24.079Z,5.62
2023-07-01T11:24:01.090Z,5.86
2023-07-01T11:26:30.641Z,6.07
2023-07-01T11:28:57.575Z,6.44
2023-07-01T11:31:27.052Z,6.36
2023-07-01T11:33:55.951Z,6.36
2023-07-01T11:36:35.800Z,6.32
2023-07-01T11:39:11.723Z,6.63
2023-07-01T11:41:39.900Z,6.68
2023-07-01T11:44:12.579Z,5.12
2023-07-01T11:46:42.233Z,4.92
2023-07-01T11:49:26.757Z,5.52
2023-07-01T11:51:55.444Z,5.48
2023-07-01T11:54:24.530Z,5.97
2023-07-01T11:57:08.759Z,6.26
2023-07-01T11:59:36.448Z,6.28
2023-07-01T12:02:03.523Z,6.69
2023-07-01T12:04:30.226Z,6.93
2023-07-01T12:07:14.827Z,6.89
2023-07-01T12:09:43.225Z,6.77
2023-07-01T12:12:17.134Z,6.34
2023-07-01T12:14:44.722Z,6.39
2023-07-01T12:17:27.100Z,6.52
2023-07-01T12:19:54.014Z,6.28
2023-07-01T12:22:20.631Z,6.26
2023-07-01T12:24:58.900Z,6.01
2023-07-01T12:27:27.340Z,6.11
2023-07-01T12:29:54.028Z,6.26
2023-07-01T12:32:20.714Z,6.15
2023-07-01T12:34:48.778Z,6.23
2023-07-01T12:37:16.087Z,6.53
2023-07-01T12:39:45.897Z,6.38
2023-07-01T12:42:14.006Z,6.84
2023-07-01T12:44:44.056Z,7.07
2023-07-01T12:47:11.051Z,7.00
2023-07-01T12:49:40.523Z,7.11
2023-07-01T12:52:07.777Z,7.03
2023-07-01T12:54:35.008Z,6.95
2023-07-01T12:57:02.782Z,7.14
2023-07-01T12:59:29.578Z,7.25
2023-07-01T13:01:56.333Z,6.81
2023-07-01T13:04:23.356Z,6.75
2023-07-01T13:06:52.561Z,6.05
2023-07-01T13:09:40.523Z,5.97
2023-07-01T13:12:07.414Z,5.72
2023-07-01T13:14:35.390Z,5.84
2023-07-01T13:17:02.053Z,6.01
2023-07-01T13:19:28.760Z,6.03
2023-07-01T13:21:55.359Z,5.87
2023-07-01T13:24:22.223Z,5.79
2023-07-01T13:26:48.928Z,5.89
2023-07-01T13:29:18.892Z,5.97
2023-07-01T13:31:47.795Z,5.52
2023-07-01T13:34:18.160Z,4.80
2023-07-01T13:36:45.751Z,4.13
2023-07-01T13:39:42.005Z,3.40
2023-07-01T13:42:10.200Z,2.88
2023-07-01T13:44:41.184Z,2.82
2023-07-01T13:47:12.726Z,2.65
2023-07-01T13:49:39.813Z,2.44
2023-07-01T13:52:06.765Z,2.44
2023-07-01T13:54:33.646Z,2.53
2023-07-01T13:57:02.061Z,2.49
2023-07-01T13:59:31.517Z,2.64
2023-07-01T14:02:02.877Z,2.61
2023-07-01T14:04:33.207Z,2.58
2023-07-01T14:07:02.397Z,2.90
2023-07-01T14:09:31.550Z,3.69
2023-07-01T14:11:58.702Z,3.91
2023-07-01T14:14:29.752Z,4.03
2023-07-01T14:16:58.102Z,4.32
2023-07-01T14:19:25.069Z,4.52
2023-07-01T14:21:54.656Z,4.83
2023-07-01T14:24:30.849Z,4.62
2023-07-01T14:27:00.236Z,4.67
2023-07-01T14:29:27.960Z,4.88
2023-07-01T14:31:56.909Z,4.52
2023-07-01T14:34:43.184Z,4.58
2023-07-01T14:37:12.871Z,4.26
2023-07-01T14:39:49.121Z,4.34
2023-07-01T14:42:29.211Z,3.82
2023-07-01T14:44:57.483Z,3.26
2023-07-01T14:47:24.164Z,3.45
2023-07-01T14:49:50.853Z,3.19
2023-07-01T14:52:20.230Z,3.29
2023-07-01T14:54:48.042Z,2.99
2023-07-01T14:57:16.375Z,2.97
2023-07-01T14:59:43.389Z,3.30
2023-07-01T15:02:10.085Z,3.34
2023-07-01T15:04:36.837Z,3.76
2023-07-01T15:07:04.205Z,3.67
2023-07-01T15:09:30.903Z,3.59
2023-07-01T15:11:57.531Z,3.33
2023-07-01T15:14:24.167Z,3.33
2023-07-01T15:16:50.788Z,3.60
2023-07-01T15:19:17.497Z,3.71
2023-07-01T15:21:45.415Z,3.64
2023-07-01T15:24:12.142Z,3.94
2023-07-01T15:26:38.871Z,4.14
2023-07-01T15:29:05.505Z,4.04
2023-07-01T15:31:32.198Z,3.91
2023-07-01T15:33:58.959Z,4.03
2023-07-01T15:36:25.564Z,4.16
2023-07-01T15:38:52.407Z,4.21
2023-07-01T15:41:19.983Z,4.44
2023-07-01T15:43:47.237Z,3.93
2023-07-01T15:46:13.864Z,4.57
2023-07-01T15:48:40.546Z,4.30
2023-07-01T15:51:07.335Z,4.33
2023-07-01T15:53:34.656Z,4.51
2023-07-01T15:56:01.354Z,4.70
2023-07-01T15:58:28.006Z,4.25
2023-07-01T16:00:54.680Z,4.49
2023-07-01T16:03:21.406Z,4.85
2023-07-01T16:05:48.935Z,4.71
2023-07-01T16:08:16.736Z,5.14
2023-07-01T16:10:45.124Z,5.18
2023-07-01T16:13:39.684Z,5.46
2023-07-01T16:16:08.801Z,4.98
2023-07-01T16:18:52.890Z,4.81
2023-07-01T16:21:22.724Z,4.87
2023-07-01T16:23:55.352Z,4.69
2023-07-01T16:26:41.144Z,4.71
2023-07-01T16:29:07.824Z,4.70
2023-07-01T16:31:39.218Z,4.48
2023-07-01T16:34:12.070Z,4.62
2023-07-01T16:36:38.765Z,4.66
2023-07-01T16:39:13.500Z,4.60
2023-07-01T16:41:40.464Z,4.79
2023-07-01T16:44:07.228Z,4.99
2023-07-01T16:46:39.490Z,5.15
2023-07-01T16:49:08.571Z,4.98
2023-07-01T16:51:41.298Z,4.94
2023-07-01T16:54:13.711Z,5.14
2023-07-01T16:56:49.125Z,6.45
2023-07-01T16:59:25.149Z,6.16
2023-07-01T17:01:52.035Z,5.62
2023-07-01T17:04:39.249Z,5.28
2023-07-01T17:07:14.466Z,5.36
2023-07-01T17:09:52.208Z,5.27
2023-07-01T17:12:27.604Z,5.31
2023-07-01T17:14:54.758Z,5.23
2023-07-01T17:17:30.356Z,5.09
2023-07-01T17:20:01.414Z,4.99
2023-07-01T17:22:29.766Z,4.86
2023-07-01T17:24:56.846Z,4.94
2023-07-01T17:27:23.480Z,5.20
2023-07-01T17:29:51.756Z,5.05
2023-07-01T17:32:20.902Z,4.78
2023-07-01T17:35:02.838Z,4.66
2023-07-01T17:37:29.502Z,4.52
2023-07-01T17:39:57.263Z,4.51
2023-07-01T17:42:23.870Z,4.22
2023-07-01T17:44:56.542Z,4.28
2023-07-01T17:47:23.260Z,4.27
2023-07-01T17:49:49.882Z,4.16
2023-07-01T17:52:16.724Z,3.92
2023-07-01T17:54:43.700Z,3.89
2023-07-01T17:57:10.523Z,3.61
2023-07-01T17:59:38.321Z,3.61
2023-07-01T18:02:05.247Z,6.35
2023-07-01T18:04:32.001Z,4.66
2023-07-01T18:06:58.691Z,3.55
2023-07-01T18:09:26.626Z,2.78
2023-07-01T18:11:53.817Z,2.49
2023-07-01T18:14:21.460Z,2.84
2023-07-01T18:16:51.400Z,3.03
2023-07-01T18:19:20.142Z,3.27
2023-07-01T18:21:46.900Z,2.45
2023-07-01T18:24:15.177Z,2.30
2023-07-01T18:26:44.143Z,3.22
2023-07-01T18:29:11.318Z,3.06
2023-07-01T18:31:40.069Z,2.46
2023-07-01T18:34:07.424Z,2.17
2023-07-01T18:36:34.189Z,2.08
2023-07-01T18:39:01.132Z,2.11
2023-07-01T18:41:28.806Z,2.10
2023-07-01T18:43:55.720Z,2.21
2023-07-01T18:46:23.430Z,2.44
2023-07-01T18:48:50.223Z,2.34
2023-07-01T18:51:16.964Z,2.25
2023-07-01T18:53:43.697Z,2.11
2023-07-01T18:56:10.555Z,2.33
2023-07-01T18:58:37.316Z,2.35
2023-07-01T19:01:03.973Z,2.39
2023-07-01T19:03:30.740Z,2.45
2023-07-01T19:05:57.427Z,2.27
2023-07-01T19:08:24.151Z,2.39
2023-07-01T19:10:50.830Z,2.30
2023-07-01T19:13:18.320Z,2.42
2023-07-01T19:15:45.341Z,2.17
2023-07-01T19:18:12.160Z,2.15
2023-07-01T19:20:45.771Z,2.33
2023-07-01T19:23:13.389Z,2.16
2023-07-01T19:25:41.311Z,2.25
2023-07-01T19:28:09.896Z,2.18
2023-07-01T19:30:38.534Z,2.14
2023-07-01T19:33:06.298Z,2.30
2023-07-01T19:35:33.461Z,2.29
2023-07-01T19:38:01.015Z,2.26
2023-07-01T19:40:27.663Z,2.28
2023-07-01T19:42:54.371Z,2.22
2023-07-01T19:45:21.658Z,2.25
2023-07-01T19:47:49.372Z,2.22
2023-07-01T19:50:16.155Z,2.19
2023-07-01T19:52:45.980Z,2.33
2023-07-01T19:55:13.027Z,2.33
2023-07-01T19:57:40.321Z,2.25
2023-07-01T20:00:10.154Z,2.30
2023-07-01T20:02:40.239Z,2.34
2023-07-01T20:05:07.946Z,2.63
2023-07-01T20:07:35.198Z,2.45
2023-07-01T20:10:09.799Z,2.48
2023-07-01T20:12:47.936Z,2.72
2023-07-01T20:15:14.656Z,2.35
2023-07-01T20:17:41.430Z,2.53
2023-07-01T20:20:09.124Z,2.53
2023-07-01T20:22:35.908Z,2.42
2023-07-01T20:25:03.704Z,2.57
2023-07-01T20:27:30.575Z,2.44
2023-07-01T20:29:57.263Z,2.55
2023-07-01T20:32:23.949Z,2.70
2023-07-01T20:34:51.088Z,2.66
2023-07-01T20:37:17.751Z,2.59
2023-07-01T20:39:44.720Z,2.89
2023-07-01T20:42:11.405Z,2.69
2023-07-01T20:44:38.500Z,2.55
2023-07-01T20:47:06.743Z,2.78
2023-07-01T20:49:34.907Z,2.54
2023-07-01T20:52:03.946Z,2.66
2023-07-01T20:54:30.947Z,2.55
2023-07-01T20:56:58.153Z,2.59
2023-07-01T20:59:25.938Z,2.87
2023-07-01T21:01:53.108Z,2.86
2023-07-01T21:04:19.880Z,2.57
2023-07-01T21:06:46.576Z,2.88
2023-07-01T21:09:15.867Z,2.86
2023-07-01T21:11:44.124Z,2.80
2023-07-01T21:14:11.385Z,2.68
2023-07-01T21:16:39.272Z,2.73
2023-07-01T21:19:06.172Z,2.88
2023-07-01T21:21:34.356Z,2.80
2023-07-01T21:24:02.407Z,3.02
2023-07-01T21:26:30.886Z,2.95
2023-07-01T21:28:59.901Z,2.87
2023-07-01T21:31:31.275Z,2.95
2023-07-01T21:33:58.873Z,2.88
2023-07-01T21:36:26.207Z,3.16
2023-07-01T21:38:52.930Z,2.95
2023-07-01T21:41:19.790Z,2.87
2023-07-01T21:43:47.060Z,3.01
2023-07-01T21:46:15.411Z,3.13
2023-07-01T21:48:43.187Z,3.24
2023-07-01T21:51:11.976Z,3.46
2023-07-01T21:53:43.693Z,3.31
2023-07-01T21:56:12.819Z,3.21
2023-07-01T21:58:49.338Z,3.37
2023-07-01T22:01:20.313Z,3.12
2023-07-01T22:03:47.137Z,3.36
2023-07-01T22:06:16.078Z,3.29
2023-07-01T22:08:44.886Z,3.43
2023-07-01T22:11:13.731Z,3.32
2023-07-01T22:13:43.535Z,3.24
2023-07-01T22:16:10.766Z,3.47
2023-07-01T22:18:38.527Z,3.61
2023-07-01T22:21:06.277Z,3.30
2023-07-01T22:23:35.629Z,3.45
2023-07-01T22:26:03.543Z,3.28
2023-07-01T22:28:30.245Z,3.36
2023-07-01T22:30:59.721Z,3.46
2023-07-01T22:33:27.486Z,3.56
2023-07-01T22:35:55.276Z,3.44
2023-07-01T22:38:22.080Z,3.41
2023-07-01T22:40:49.090Z,3.65
2023-07-01T22:43:16.127Z,3.46
2023-07-01T22:45:45.999Z,3.47
2023-07-01T22:48:13.067Z,3.45
2023-07-01T22:50:40.448Z,3.32
2023-07-01T22:53:07.074Z,3.14
2023-07-01T22:55:33.674Z,3.61
2023-07-01T22:58:00.533Z,3.58
2023-07-01T23:00:27.286Z,3.67
2023-07-01T23:02:54.067Z,3.91
2023-07-01T23:05:20.874Z,3.88
2023-07-01T23:07:48.338Z,4.08
2023-07-01T23:10:15.016Z,3.74
2023-07-01T23:12:41.828Z,3.86
2023-07-01T23:15:09.039Z,4.02
2023-07-01T23:17:35.718Z,4.12
2023-07-01T23:20:05.382Z,4.27
2023-07-01T23:22:37.017Z,4.27
2023-07-01T23:25:08.736Z,4.41
2023-07-01T23:27:43.345Z,4.68
2023-07-01T23:30:15.818Z,4.66
2023-07-01T23:32:52.374Z,4.71
2023-07-01T23:35:24.190Z,4.72
2023-07-01T23:37:52.040Z,4.91
2023-07-01T23:40:19.420Z,4.92
2023-07-01T23:42:46.441Z,5.17
2023-07-01T23:45:16.809Z,5.76
2023-07-01T23:47:48.575Z,6.27
2023-07-01T23:50:17.143Z,7.05
2023-07-01T23:52:43.977Z,6.81
2023-07-01T23:55:10.762Z,6.86
2023-07-01T23:57:40.241Z,7.30
